Flight Track Log - Related Links

Times and Time Zones

All times are in EST time to prevent confusion due to time zone crossing. See the LYM717 flight status page for this flight to view local times or setup timezone preferences in your user account.

Time Position Orientation Groundspeed Altitude Reporting Facility
EST Latitude Longitude Course Direction KTS MPH feet Rate Location/Type
Thu 07:14:50 PM 40.1933 -100.7842 258° West 123 142 7,600  Level Denver Center
Thu 07:15:52 PM 40.1858 -100.8258 257° West 123 142 8,700 1,113 Climbing Denver Center
Thu 07:16:54 PM 40.1722 -100.8742 250° West 126 145 9,900 629 Climbing Denver Center
Thu 07:17:56 PM 40.1647 -100.9183 257° West 126 145 10,000 48 Climbing Denver Center
Thu 07:18:58 PM 40.1594 -100.9806 264° West 140 161 10,000  Level Denver Center
Thu 07:20:00 PM 40.1748 -100.8846 258° West  Level FlightAware Approximate
Thu 07:20:00 PM 40.1564 -101.0361 266° West 152 175 10,000  Level Denver Center
Thu 07:21:02 PM 40.1517 -101.0914 264° West 156 180 9,900 -48 Descending Denver Center
Thu 07:22:04 PM 40.1481 -101.1581 266° West 161 185 9,900 48 Level Denver Center
Thu 07:23:06 PM 40.1450 -101.2153 266° West 163 188 10,000 48 Climbing Denver Center
Thu 07:24:08 PM 40.1431 -101.2836 268° West 165 190 10,000 -48 Level Denver Center
Thu 07:25:10 PM 40.1403 -101.3417 266° West 167 192 9,900  Descending Denver Center
Thu 07:26:12 PM 40.1350 -101.4092 264° West 168 193 10,000 48 Climbing Denver Center
Thu 07:27:14 PM 40.1342 -101.4658 269° West 165 190 10,000 -48 Level Denver Center
Thu 07:28:16 PM 40.1328 -101.5342 268° West 166 191 9,900  Descending Denver Center
Thu 07:29:18 PM 40.1275 -101.5933 263° West 170 196 10,000  Climbing Denver Center
Thu 07:30:20 PM 40.1264 -101.6611 269° West 168 193 9,900  Descending Denver Center
Thu 07:31:22 PM 40.1264 -101.7189 270° West 167 192 10,000 48 Climbing Denver Center
Thu 07:32:24 PM 40.1258 -101.7778 269° West 168 193 10,000  Level Denver Center
Thu 07:33:26 PM 40.1256 -101.8453 270° West 167 192 10,000  Level Denver Center
Thu 07:34:28 PM 40.1239 -101.9025 268° West 166 191 10,000  Level Denver Center
Thu 07:35:30 PM 40.1186 -101.9703 264° West 168 193 10,000  Level Denver Center
Thu 07:36:32 PM 40.1122 -102.0264 262° West 167 192 10,000  Level Denver Center
Thu 07:37:34 PM 40.1028 -102.0931 260° West 167 192 10,000  Level Denver Center
Thu 07:38:36 PM 40.0950 -102.1508 260° West 167 192 10,000 -48 Level Denver Center
Thu 07:39:38 PM 40.0872 -102.2169 261° West 166 191 9,900  Descending Denver Center
Thu 07:40:40 PM 40.0817 -102.2742 263° West 166 191 10,000 48 Climbing Denver Center
Thu 07:41:42 PM 40.0753 -102.3419 263° West 167 192 10,000  Level Denver Center
Thu 07:42:44 PM 40.0694 -102.3989 262° West 167 192 10,000  Level Denver Center
Thu 07:43:46 PM 40.0625 -102.4678 263° West 169 194 10,000  Level Denver Center
Thu 07:44:48 PM 40.0550 -102.5261 260° West 170 196 10,000  Level Denver Center
Thu 07:45:50 PM 40.0500 -102.5842 264° West 169 194 10,000  Level Denver Center
Thu 07:46:52 PM 40.0472 -102.6519 267° West 167 192 10,000  Level Denver Center
Thu 07:47:54 PM 40.0483 -102.7186 271° West 171 197 10,000  Level Denver Center
Thu 07:48:56 PM 40.0400 -102.7803 260° West 174 200 10,000  Level Denver Center
Thu 07:49:58 PM 40.0331 -102.8406 261° West 169 194 10,000  Level Denver Center
Thu 07:51:00 PM 40.0267 -102.9011 262° West 169 194 10,000  Level Denver Center
Thu 07:52:02 PM 40.0206 -102.9608 262° West 168 193 10,000  Level Denver Center
Thu 07:53:04 PM 40.0175 -103.0242 266° West 170 196 10,000  Level Denver Center
Thu 07:54:05 PM 40.0108 -103.0992 263° West 173 199 10,000  Level Denver Center
Thu 07:55:07 PM 40.0042 -103.1614 262° West 174 200 10,000  Level Denver Center
Thu 07:56:09 PM 39.9975 -103.2222 262° West 172 198 10,000  Level Denver Center
Thu 07:57:11 PM 39.9919 -103.2828 263° West 171 197 10,000  Level Denver Center
Thu 07:58:13 PM 39.9883 -103.3444 266° West 170 196 10,000  Level Denver Center
Thu 07:59:16 PM 39.9844 -103.4167 266° West 168 193 10,000  Level Denver Center
Thu 08:00:18 PM 39.9806 -103.4772 265° West 168 193 10,000  Level Denver Center
Thu 08:01:20 PM 39.9753 -103.5383 264° West 169 194 10,000  Level Denver Center
Thu 08:02:22 PM 39.9689 -103.5997 262° West 170 196 10,000  Level Denver Center
Thu 08:03:24 PM 39.9639 -103.6597 264° West 169 194 10,000  Level Denver Center
Thu 08:04:26 PM 39.9597 -103.7200 265° West 168 193 10,000 -48 Level Denver Center
Thu 08:05:28 PM 39.9544 -103.7897 264° West 171 197 9,900  Descending Denver Center
Thu 08:06:30 PM 39.9508 -103.8542 266° West 166 191 10,000  Climbing Denver Center
Thu 08:07:32 PM 39.9472 -103.9142 266° West 168 193 9,900 -242 Descending Denver Center
Thu 08:08:34 PM 39.9539 -103.9739 278° West 167 192 9,500 -581 Descending Denver Center
Thu 08:09:36 PM 39.9625 -104.0458 279° West 182 209 8,700 -732 Descending Denver Center
Thu 08:10:37 PM 39.9714 -104.1153 280° West 192 221 8,000 -390 Descending Denver Center
Thu 08:11:39 PM 39.9803 -104.1892 279° West 192 221 7,900  Descending Denver Center
Thu 08:12:41 PM 39.9875 -104.2536 278° West 183 211 8,000 48 Climbing Denver Center
Thu 08:13:43 PM 39.9958 -104.3178 280° West 180 207 8,000  Level Denver Center
Thu 08:14:45 PM 39.9986 -104.3878 273° West 181 208 8,000 -167 Level Denver Center
Thu 08:15:31 PM 40.0000 -104.4333 272° West 184 212 7,700 -453 Descending Denver TRACON
Thu 08:16:31 PM 40.0000 -104.5167 270° West 193 222 7,200 -350 Descending Denver TRACON
Thu 08:17:31 PM 40.0000 -104.5833 270° West 192 221 7,000 -158 Descending Denver TRACON
Thu 08:18:25 PM 39.9667 -104.6167 217° Southwest 171 197 6,900 -157 Descending Denver TRACON
Thu 08:19:26 PM 39.9333 -104.6500 217° Southwest 133 153 6,700 -378 Descending Denver TRACON
Thu 08:20:32 PM 39.9000 -104.6667 201° Southwest 128 147 6,100 -510 Descending Denver TRACON
Thu 08:21:59 PM 39.8564 -104.6608 174° South 125 144 5,400 -483 Descending Denver Center
Thu 08:23:00 PM 39.8500 -104.6667 201° Southwest  Level FlightAware Approximate
Thu 08:30:00 PM 39.8617 -104.6732 201° Southwest  Level Estimated
Thu 08:31:00 PM 39.8617 -104.6732 201° Southwest  Level Estimated
Thu 08:32:00 PM 39.8617 -104.6732 201° Southwest  Level Estimated

Login

Don't have an account? Register now (free) for customized features, flight alerts, and more!